createdAt,value
2017-05-09T00:00:58.464Z,19.91
2017-05-09T00:01:59.747Z,19.95
2017-05-09T00:03:01.032Z,19.88
2017-05-09T00:04:02.316Z,19.92
2017-05-09T00:05:03.602Z,19.89
2017-05-09T00:06:04.886Z,19.92
2017-05-09T00:07:06.171Z,19.92
2017-05-09T00:08:07.460Z,19.89
2017-05-09T00:09:08.744Z,19.84
2017-05-09T00:10:10.030Z,19.92
2017-05-09T00:11:11.313Z,19.88
2017-05-09T00:12:12.598Z,19.92
2017-05-09T00:13:13.881Z,19.89
2017-05-09T00:14:15.165Z,19.86
2017-05-09T00:15:16.451Z,19.86
2017-05-09T00:16:17.737Z,19.92
2017-05-09T00:17:19.021Z,19.92
2017-05-09T00:18:20.306Z,19.82
2017-05-09T00:19:21.589Z,19.92
2017-05-09T00:20:22.872Z,19.82
2017-05-09T00:21:24.159Z,19.85
2017-05-09T00:22:25.443Z,19.84
2017-05-09T00:23:26.727Z,19.86
2017-05-09T00:24:28.012Z,19.79
2017-05-09T00:25:29.295Z,19.79
2017-05-09T00:26:30.582Z,19.86
2017-05-09T00:27:31.866Z,19.82
2017-05-09T00:28:33.149Z,19.85
2017-05-09T00:29:34.434Z,19.82
2017-05-09T00:30:35.718Z,19.79
2017-05-09T00:31:37.002Z,19.88
2017-05-09T00:32:38.288Z,19.94
2017-05-09T00:33:39.572Z,19.88
2017-05-09T00:34:40.864Z,19.82
2017-05-09T00:35:42.177Z,19.79
2017-05-09T00:36:43.426Z,19.79
2017-05-09T00:37:44.711Z,19.81
2017-05-09T00:38:45.997Z,19.79
2017-05-09T00:39:47.283Z,19.84
2017-05-09T00:40:48.564Z,19.81
2017-05-09T00:41:49.850Z,19.77
2017-05-09T00:42:51.138Z,19.81
2017-05-09T00:43:52.419Z,19.82
2017-05-09T00:44:53.704Z,19.79
2017-05-09T00:45:54.988Z,19.74
2017-05-09T00:46:56.272Z,19.73
2017-05-09T00:47:57.559Z,19.74
2017-05-09T00:48:58.843Z,19.74
2017-05-09T00:50:00.127Z,19.73
2017-05-09T00:51:01.412Z,19.76
2017-05-09T00:52:02.695Z,19.70
2017-05-09T00:53:03.979Z,19.73
2017-05-09T00:54:05.265Z,19.73
2017-05-09T00:55:06.550Z,19.77
2017-05-09T00:56:07.835Z,19.76
2017-05-09T00:57:09.118Z,19.73
2017-05-09T00:58:10.404Z,19.70
2017-05-09T00:59:11.687Z,19.71
2017-05-09T01:00:12.974Z,19.71
2017-05-09T01:01:14.259Z,19.59
2017-05-09T01:02:15.541Z,19.76
2017-05-09T01:03:16.825Z,19.76
2017-05-09T01:04:18.112Z,19.67
2017-05-09T01:05:19.397Z,19.67
2017-05-09T01:06:20.682Z,19.66
2017-05-09T01:07:21.966Z,19.64
2017-05-09T01:08:23.249Z,19.59
2017-05-09T01:09:24.534Z,19.62
2017-05-09T01:10:25.817Z,19.66
2017-05-09T01:11:27.104Z,19.69
2017-05-09T01:12:28.389Z,19.64
2017-05-09T01:13:29.674Z,19.59
2017-05-09T01:14:30.957Z,19.66
2017-05-09T01:15:32.242Z,19.64
2017-05-09T01:16:33.527Z,19.64
2017-05-09T01:17:34.811Z,19.67
2017-05-09T01:18:36.096Z,19.56
2017-05-09T01:19:37.381Z,19.62
2017-05-09T01:20:38.664Z,19.54
2017-05-09T01:21:39.947Z,19.62
2017-05-09T01:22:41.232Z,19.62
2017-05-09T01:23:42.521Z,19.55
2017-05-09T01:24:43.802Z,19.56
2017-05-09T01:25:45.085Z,19.52
2017-05-09T01:26:46.369Z,19.58
2017-05-09T01:27:47.653Z,19.55
2017-05-09T01:28:48.937Z,19.56
2017-05-09T01:29:50.221Z,19.56
2017-05-09T01:30:51.503Z,19.63
2017-05-09T01:31:52.789Z,19.56
2017-05-09T01:32:54.077Z,19.56
2017-05-09T01:33:55.359Z,19.54
2017-05-09T01:34:56.644Z,19.55
2017-05-09T01:35:57.929Z,19.58
2017-05-09T01:36:59.211Z,19.56
2017-05-09T01:38:00.496Z,19.56
2017-05-09T01:39:01.781Z,19.45
2017-05-09T01:40:03.065Z,19.54
2017-05-09T01:41:04.350Z,19.56
2017-05-09T01:42:05.633Z,19.44
2017-05-09T01:43:06.919Z,19.56
2017-05-09T01:44:08.208Z,19.56
2017-05-09T01:45:09.493Z,19.56
2017-05-09T01:46:10.777Z,19.48
2017-05-09T01:47:12.059Z,19.48
2017-05-09T01:48:13.344Z,19.54
2017-05-09T01:49:14.630Z,19.44
2017-05-09T01:50:15.913Z,19.47
2017-05-09T01:51:17.199Z,19.47
2017-05-09T01:52:18.483Z,19.49
2017-05-09T01:53:19.766Z,19.56
2017-05-09T01:54:21.052Z,19.41
2017-05-09T01:55:22.338Z,19.44
2017-05-09T01:56:23.623Z,19.49
2017-05-09T01:57:24.907Z,19.44
2017-05-09T01:58:26.188Z,19.41
2017-05-09T01:59:27.474Z,19.45
2017-05-09T02:00:28.759Z,19.45
2017-05-09T02:01:30.075Z,19.45
2017-05-09T02:02:31.330Z,19.40
2017-05-09T02:03:32.611Z,19.41
2017-05-09T02:04:33.899Z,19.45
2017-05-09T02:05:35.178Z,19.44
2017-05-09T02:06:36.463Z,19.37
2017-05-09T02:07:37.747Z,19.45
2017-05-09T02:08:39.033Z,19.39
2017-05-09T02:09:40.315Z,19.44
2017-05-09T02:10:41.600Z,19.48
2017-05-09T02:11:42.885Z,19.39
2017-05-09T02:12:44.167Z,19.48
2017-05-09T02:13:45.451Z,19.40
2017-05-09T02:14:46.736Z,19.45
2017-05-09T02:15:48.023Z,19.34
2017-05-09T02:16:49.305Z,19.48
2017-05-09T02:17:50.588Z,19.36
2017-05-09T02:18:51.872Z,19.40
2017-05-09T02:19:53.155Z,19.36
2017-05-09T02:20:54.442Z,19.48
2017-05-09T02:21:55.726Z,19.45
2017-05-09T02:22:57.012Z,19.36
2017-05-09T02:23:58.296Z,19.40
2017-05-09T02:24:59.581Z,19.34
2017-05-09T02:26:00.864Z,19.34
2017-05-09T02:27:02.150Z,19.47
2017-05-09T02:28:03.433Z,19.47
2017-05-09T02:29:04.718Z,19.47
2017-05-09T02:30:06.001Z,19.48
2017-05-09T02:31:07.287Z,19.44
2017-05-09T02:32:08.579Z,19.30
2017-05-09T02:33:09.864Z,19.37
2017-05-09T02:34:11.149Z,19.40
2017-05-09T02:35:12.434Z,19.30
2017-05-09T02:36:13.717Z,19.29
2017-05-09T02:37:15.005Z,19.33
2017-05-09T02:38:16.286Z,19.37
2017-05-09T02:39:17.566Z,19.29
2017-05-09T02:40:18.856Z,19.31
2017-05-09T02:41:20.137Z,19.33
2017-05-09T02:42:21.439Z,19.36
2017-05-09T02:43:22.723Z,19.34
2017-05-09T02:44:24.009Z,19.31
2017-05-09T02:45:25.294Z,19.37
2017-05-09T02:46:26.577Z,19.36
2017-05-09T02:47:27.860Z,19.31
2017-05-09T02:48:29.176Z,19.26
2017-05-09T02:49:30.457Z,19.37
2017-05-09T02:50:31.745Z,19.33
2017-05-09T02:51:33.029Z,19.36
2017-05-09T02:52:34.321Z,19.33
2017-05-09T02:53:35.601Z,19.27
2017-05-09T02:54:36.885Z,19.39
2017-05-09T02:55:38.169Z,19.27
2017-05-09T02:56:39.451Z,19.36
2017-05-09T02:57:40.739Z,19.37
2017-05-09T02:58:42.021Z,19.37
2017-05-09T02:59:43.305Z,19.30
2017-05-09T03:00:44.589Z,19.34
2017-05-09T03:01:45.873Z,19.31
2017-05-09T03:02:47.158Z,19.26
2017-05-09T03:03:48.442Z,19.24
2017-05-09T03:04:49.729Z,19.27
2017-05-09T03:05:51.008Z,19.22
2017-05-09T03:06:52.292Z,19.19
2017-05-09T03:07:53.579Z,19.22
2017-05-09T03:08:54.863Z,19.21
2017-05-09T03:09:56.150Z,19.24
2017-05-09T03:10:57.433Z,19.24
2017-05-09T03:11:58.715Z,19.24
2017-05-09T03:13:00.001Z,19.22
2017-05-09T03:14:01.286Z,19.24
2017-05-09T03:15:02.570Z,19.22
2017-05-09T03:16:03.854Z,19.21
2017-05-09T03:17:05.136Z,19.11
2017-05-09T03:18:06.419Z,19.22
2017-05-09T03:19:07.705Z,19.26
2017-05-09T03:20:08.990Z,19.14
2017-05-09T03:21:10.273Z,19.27
2017-05-09T03:22:11.560Z,19.19
2017-05-09T03:23:12.843Z,19.16
2017-05-09T03:24:14.127Z,19.22
2017-05-09T03:25:15.411Z,19.12
2017-05-09T03:26:16.695Z,19.22
2017-05-09T03:27:17.980Z,19.16
2017-05-09T03:28:19.264Z,19.15
2017-05-09T03:29:20.548Z,19.22
2017-05-09T03:30:21.831Z,19.14
2017-05-09T03:31:23.118Z,19.15
2017-05-09T03:32:24.403Z,19.18
2017-05-09T03:33:25.682Z,19.18
2017-05-09T03:34:26.968Z,19.21
2017-05-09T03:35:28.253Z,19.09
2017-05-09T03:36:29.538Z,19.12
2017-05-09T03:37:30.822Z,19.12
2017-05-09T03:38:32.107Z,19.15
2017-05-09T03:39:33.390Z,19.14
2017-05-09T03:40:34.675Z,19.16
2017-05-09T03:41:35.969Z,19.16
2017-05-09T03:42:37.265Z,19.14
2017-05-09T03:43:38.551Z,19.11
2017-05-09T03:44:39.832Z,19.18
2017-05-09T03:45:41.120Z,19.19
2017-05-09T03:46:42.405Z,19.21
2017-05-09T03:47:43.691Z,19.21
2017-05-09T03:48:44.976Z,19.27
2017-05-09T03:49:46.260Z,19.30
2017-05-09T03:50:47.547Z,19.27
2017-05-09T03:51:48.831Z,19.26
2017-05-09T03:52:50.114Z,19.36
2017-05-09T03:53:51.401Z,19.36
2017-05-09T03:54:52.686Z,19.34
2017-05-09T03:55:53.970Z,19.33
2017-05-09T03:56:55.254Z,19.36
2017-05-09T03:57:56.540Z,19.31
2017-05-09T03:58:57.826Z,19.36
2017-05-09T03:59:59.111Z,19.40
2017-05-09T04:01:00.395Z,19.45
2017-05-09T04:02:01.683Z,19.52
2017-05-09T04:03:02.968Z,19.58
2017-05-09T04:04:04.257Z,19.59
2017-05-09T04:05:05.542Z,19.58
2017-05-09T04:06:06.827Z,19.64
2017-05-09T04:07:08.113Z,19.67
2017-05-09T04:08:09.410Z,19.73
2017-05-09T04:09:10.702Z,19.73
2017-05-09T04:10:11.991Z,19.77
2017-05-09T04:11:13.281Z,19.81
2017-05-09T04:12:14.584Z,19.85
2017-05-09T04:13:15.890Z,19.84
2017-05-09T04:14:17.189Z,19.91
2017-05-09T04:15:18.483Z,19.92
2017-05-09T04:16:21.482Z,19.91
2017-05-09T04:17:23.305Z,19.95
2017-05-09T04:18:24.642Z,20.00
2017-05-09T04:19:25.931Z,20.02
2017-05-09T04:20:27.217Z,20.06
2017-05-09T04:21:28.506Z,20.10
2017-05-09T04:22:29.794Z,20.21
2017-05-09T04:23:31.083Z,20.25
2017-05-09T04:24:32.370Z,20.25
2017-05-09T04:25:33.658Z,20.22
2017-05-09T04:26:34.943Z,20.24
2017-05-09T04:27:36.328Z,20.24
2017-05-09T04:28:37.591Z,20.31
2017-05-09T04:29:38.881Z,20.31
2017-05-09T04:30:40.167Z,20.28
2017-05-09T04:31:41.461Z,20.47
2017-05-09T04:32:42.742Z,20.41
2017-05-09T04:33:44.038Z,20.44
2017-05-09T04:34:45.326Z,20.52
2017-05-09T04:35:46.611Z,20.60
2017-05-09T04:36:47.900Z,20.60
2017-05-09T04:37:49.188Z,20.59
2017-05-09T04:38:50.480Z,20.59
2017-05-09T04:39:51.766Z,20.60
2017-05-09T04:40:53.054Z,20.60
2017-05-09T04:41:54.341Z,20.65
2017-05-09T04:42:55.629Z,20.74
2017-05-09T04:43:56.922Z,20.88
2017-05-09T04:44:58.206Z,20.99
2017-05-09T04:45:59.494Z,21.14
2017-05-09T04:47:03.643Z,21.24
2017-05-09T04:48:04.882Z,21.32
2017-05-09T04:49:09.124Z,21.29
2017-05-09T04:50:10.367Z,21.45
2017-05-09T04:51:11.653Z,21.57
2017-05-09T04:52:12.940Z,21.61
2017-05-09T04:53:14.231Z,21.70
2017-05-09T04:54:15.525Z,21.99
2017-05-09T04:55:16.829Z,22.17
2017-05-09T04:56:18.116Z,22.23
2017-05-09T04:57:19.402Z,22.23
2017-05-09T04:58:20.702Z,22.28
2017-05-09T04:59:22.277Z,22.29
2017-05-09T05:00:23.566Z,22.28
2017-05-09T05:01:24.853Z,22.39
2017-05-09T05:02:26.141Z,22.51
2017-05-09T05:03:27.430Z,22.47
2017-05-09T05:04:28.721Z,22.53
2017-05-09T05:05:30.009Z,22.57
2017-05-09T05:06:31.298Z,22.63
2017-05-09T05:07:32.586Z,22.32
2017-05-09T05:08:33.877Z,22.04
2017-05-09T05:09:35.164Z,21.87
2017-05-09T05:10:36.458Z,21.79
2017-05-09T05:11:37.746Z,21.82
2017-05-09T05:12:39.039Z,21.73
2017-05-09T05:13:40.324Z,21.61
2017-05-09T05:14:41.610Z,21.55
2017-05-09T05:15:42.949Z,21.45
2017-05-09T05:16:44.205Z,21.43
2017-05-09T05:17:45.492Z,21.35
2017-05-09T05:18:46.785Z,21.36
2017-05-09T05:19:48.074Z,21.36
2017-05-09T05:20:49.362Z,21.36
2017-05-09T05:21:50.651Z,21.33
2017-05-09T05:22:53.242Z,21.39
2017-05-09T05:23:54.530Z,21.42
2017-05-09T05:24:55.819Z,21.29
2017-05-09T05:25:57.106Z,21.33
2017-05-09T05:26:58.395Z,21.30
2017-05-09T05:27:59.688Z,21.30
2017-05-09T05:29:00.972Z,21.29
2017-05-09T05:30:02.260Z,21.32
2017-05-09T05:31:03.549Z,21.32
2017-05-09T05:32:04.835Z,21.33
2017-05-09T05:33:06.134Z,21.37
2017-05-09T05:34:07.417Z,21.40
2017-05-09T05:35:08.702Z,21.40
2017-05-09T05:36:09.992Z,21.43
2017-05-09T05:37:11.281Z,21.43
2017-05-09T05:38:12.567Z,21.40
2017-05-09T05:39:13.856Z,21.30
2017-05-09T05:40:15.144Z,21.20
2017-05-09T05:41:16.432Z,21.14
2017-05-09T05:42:17.722Z,21.05
2017-05-09T05:43:19.009Z,21.00
2017-05-09T05:44:20.297Z,20.95
2017-05-09T05:45:21.585Z,20.95
2017-05-09T05:46:22.875Z,20.90
2017-05-09T05:47:24.161Z,20.93
2017-05-09T05:48:25.449Z,20.85
2017-05-09T05:49:26.739Z,20.92
2017-05-09T05:50:28.025Z,20.90
2017-05-09T05:51:29.313Z,20.87
2017-05-09T05:52:30.603Z,20.88
2017-05-09T05:53:31.891Z,20.84
2017-05-09T05:54:33.179Z,20.85
2017-05-09T05:55:34.466Z,20.88
2017-05-09T05:56:35.760Z,20.88
2017-05-09T05:57:37.049Z,20.78
2017-05-09T05:58:38.335Z,20.77
2017-05-09T05:59:39.626Z,20.87
2017-05-09T06:00:40.913Z,20.84
2017-05-09T06:01:42.203Z,20.84
2017-05-09T06:02:43.494Z,20.85
2017-05-09T06:03:44.782Z,20.81
2017-05-09T06:04:46.072Z,20.82
2017-05-09T06:05:47.363Z,20.81
2017-05-09T06:06:48.651Z,20.92
2017-05-09T06:07:49.940Z,20.92
2017-05-09T06:08:51.237Z,20.78
2017-05-09T06:09:52.531Z,20.88
2017-05-09T06:10:53.815Z,20.90
2017-05-09T06:11:55.102Z,20.84
2017-05-09T06:12:56.394Z,20.88
2017-05-09T06:13:57.683Z,20.97
2017-05-09T06:14:58.972Z,20.99
2017-05-09T06:16:00.260Z,21.02
2017-05-09T06:17:01.550Z,20.99
2017-05-09T06:18:02.839Z,21.03
2017-05-09T06:19:04.127Z,20.97
2017-05-09T06:20:05.416Z,20.95
2017-05-09T06:21:06.706Z,21.02
2017-05-09T06:22:07.994Z,21.02
2017-05-09T06:23:09.286Z,21.03
2017-05-09T06:24:10.570Z,21.06
2017-05-09T06:25:11.860Z,21.05
2017-05-09T06:26:13.151Z,21.03
2017-05-09T06:27:14.438Z,21.00
2017-05-09T06:28:15.730Z,21.03
2017-05-09T06:29:17.055Z,20.99
2017-05-09T06:30:18.305Z,20.99
2017-05-09T06:31:19.596Z,21.00
2017-05-09T06:32:20.883Z,21.02
2017-05-09T06:33:22.171Z,21.06
2017-05-09T06:34:23.459Z,21.05
2017-05-09T06:35:24.750Z,21.11
2017-05-09T06:36:26.039Z,21.12
2017-05-09T06:37:27.329Z,21.12
2017-05-09T06:38:28.619Z,21.07
2017-05-09T06:39:29.905Z,21.11
2017-05-09T06:40:31.228Z,21.09
2017-05-09T06:41:32.484Z,21.12
2017-05-09T06:42:33.774Z,21.14
2017-05-09T06:43:35.063Z,21.15
2017-05-09T06:44:36.350Z,21.18
2017-05-09T06:45:37.641Z,21.17
2017-05-09T06:46:38.939Z,21.18
2017-05-09T06:47:40.220Z,21.20
2017-05-09T06:48:41.507Z,21.18
2017-05-09T06:49:42.798Z,21.12
2017-05-09T06:50:44.086Z,21.15
2017-05-09T06:51:45.375Z,21.29
2017-05-09T06:52:46.662Z,21.18
2017-05-09T06:53:47.952Z,21.20
2017-05-09T06:54:49.241Z,21.25
2017-05-09T06:55:50.556Z,21.27
2017-05-09T06:56:51.844Z,21.24
2017-05-09T06:57:53.133Z,21.24
2017-05-09T06:58:54.423Z,21.27
2017-05-09T06:59:55.715Z,21.33
2017-05-09T07:00:57.002Z,21.24
2017-05-09T07:01:58.293Z,21.32
2017-05-09T07:02:59.581Z,21.30
2017-05-09T07:04:00.871Z,21.33
2017-05-09T07:05:02.160Z,21.30
2017-05-09T07:06:03.450Z,21.32
2017-05-09T07:07:04.738Z,21.25
2017-05-09T07:08:06.027Z,21.42
2017-05-09T07:09:07.317Z,21.45
2017-05-09T07:10:08.615Z,21.35
2017-05-09T07:11:09.903Z,21.35
2017-05-09T07:12:11.192Z,21.36
2017-05-09T07:13:12.482Z,21.36
2017-05-09T07:14:13.808Z,21.35
2017-05-09T07:15:15.060Z,21.33
2017-05-09T07:16:16.350Z,21.42
2017-05-09T07:17:17.638Z,21.40
2017-05-09T07:18:18.932Z,21.37
2017-05-09T07:19:20.223Z,21.43
2017-05-09T07:20:21.511Z,21.39
2017-05-09T07:21:22.800Z,21.39
2017-05-09T07:22:24.088Z,21.40
2017-05-09T07:23:25.379Z,21.40
2017-05-09T07:24:26.666Z,21.40
2017-05-09T07:25:27.954Z,21.40
2017-05-09T07:26:29.246Z,21.39
2017-05-09T07:27:30.566Z,21.42
2017-05-09T07:28:31.820Z,21.45
2017-05-09T07:29:33.110Z,21.39
2017-05-09T07:30:34.398Z,21.45
2017-05-09T07:31:35.694Z,21.37
2017-05-09T07:32:36.992Z,21.39
2017-05-09T07:33:38.277Z,21.39
2017-05-09T07:34:39.567Z,21.36
2017-05-09T07:35:40.856Z,21.40
2017-05-09T07:36:42.146Z,21.37
2017-05-09T07:37:43.434Z,21.36
2017-05-09T07:38:44.724Z,21.42
2017-05-09T07:39:46.014Z,21.42
2017-05-09T07:40:47.306Z,21.39
2017-05-09T07:41:48.596Z,21.48
2017-05-09T07:42:49.905Z,21.40
2017-05-09T07:43:51.196Z,21.39
2017-05-09T07:44:52.491Z,21.43
2017-05-09T07:45:53.781Z,21.42
2017-05-09T07:46:55.070Z,21.39
2017-05-09T07:47:56.359Z,21.36
2017-05-09T07:48:57.648Z,21.42
2017-05-09T07:49:58.938Z,21.37
2017-05-09T07:51:00.228Z,21.45
2017-05-09T07:52:01.517Z,21.42
2017-05-09T07:53:02.808Z,21.50
2017-05-09T07:54:04.099Z,21.46
2017-05-09T07:55:05.429Z,21.46
2017-05-09T07:56:06.721Z,21.55
2017-05-09T07:57:08.011Z,21.40
2017-05-09T07:58:09.302Z,21.40
2017-05-09T07:59:10.592Z,21.50
2017-05-09T08:00:11.885Z,21.46
2017-05-09T08:01:13.176Z,21.48
2017-05-09T08:02:14.465Z,21.50
2017-05-09T08:03:15.754Z,21.58
2017-05-09T08:04:17.045Z,21.48
2017-05-09T08:05:18.332Z,21.58
2017-05-09T08:06:19.626Z,21.55
2017-05-09T08:07:20.916Z,21.55
2017-05-09T08:08:22.210Z,21.55
2017-05-09T08:09:23.500Z,21.55
2017-05-09T08:10:24.791Z,21.54
2017-05-09T08:11:26.083Z,21.55
2017-05-09T08:12:27.374Z,21.57
2017-05-09T08:13:28.665Z,21.52
2017-05-09T08:14:29.956Z,21.64
2017-05-09T08:15:31.258Z,21.60
2017-05-09T08:16:32.547Z,21.69
2017-05-09T08:17:33.840Z,21.62
2017-05-09T08:18:35.130Z,21.54
2017-05-09T08:19:36.420Z,21.60
2017-05-09T08:20:37.709Z,21.62
2017-05-09T08:21:39.001Z,21.70
2017-05-09T08:22:40.290Z,21.55
2017-05-09T08:23:41.581Z,21.51
2017-05-09T08:24:42.868Z,21.50
2017-05-09T08:25:44.157Z,21.52
2017-05-09T08:26:45.444Z,21.58
2017-05-09T08:27:46.733Z,21.45
2017-05-09T08:28:48.024Z,21.43
2017-05-09T08:29:49.319Z,21.67
2017-05-09T08:30:50.606Z,21.62
2017-05-09T08:31:51.897Z,21.66
2017-05-09T08:32:53.189Z,21.60
2017-05-09T08:33:54.476Z,21.66
2017-05-09T08:34:55.769Z,21.70
2017-05-09T08:35:57.064Z,21.60
2017-05-09T08:36:58.352Z,21.61
2017-05-09T08:37:59.640Z,21.60
2017-05-09T08:39:00.930Z,21.62
2017-05-09T08:40:02.222Z,21.73
2017-05-09T08:41:03.513Z,21.76
2017-05-09T08:42:04.804Z,21.79
2017-05-09T08:43:06.098Z,21.72
2017-05-09T08:44:07.386Z,21.76
2017-05-09T08:45:08.675Z,21.76
2017-05-09T08:46:09.965Z,21.79
2017-05-09T08:47:11.258Z,21.73
2017-05-09T08:48:12.545Z,21.73
2017-05-09T08:49:13.838Z,21.83
2017-05-09T08:50:15.130Z,21.72
2017-05-09T08:51:16.422Z,21.85
2017-05-09T08:52:17.710Z,21.91
2017-05-09T08:53:19.014Z,21.95
2017-05-09T08:54:20.305Z,21.99
2017-05-09T08:55:21.595Z,22.00
2017-05-09T08:56:22.887Z,21.99
2017-05-09T08:57:24.178Z,21.98
2017-05-09T08:58:25.470Z,22.06
2017-05-09T08:59:26.760Z,21.93
2017-05-09T09:00:28.053Z,22.11
2017-05-09T09:01:29.340Z,22.02
2017-05-09T09:02:30.632Z,22.10
2017-05-09T09:03:31.921Z,22.10
2017-05-09T09:04:33.210Z,22.11
2017-05-09T09:05:34.502Z,22.00
2017-05-09T09:06:35.791Z,22.02
2017-05-09T09:07:37.082Z,22.08
2017-05-09T09:08:38.372Z,22.10
2017-05-09T09:09:39.663Z,22.11
2017-05-09T09:10:40.954Z,21.92
2017-05-09T09:11:42.246Z,22.07
2017-05-09T09:12:43.539Z,21.98
2017-05-09T09:13:44.828Z,22.02
2017-05-09T09:14:46.131Z,21.91
2017-05-09T09:15:47.420Z,21.92
2017-05-09T09:16:48.710Z,21.91
2017-05-09T09:17:50.000Z,21.95
2017-05-09T09:18:51.291Z,21.95
2017-05-09T09:19:52.583Z,21.96
2017-05-09T09:20:53.873Z,21.91
2017-05-09T09:21:55.165Z,21.80
2017-05-09T09:22:56.455Z,21.76
2017-05-09T09:23:57.744Z,21.73
2017-05-09T09:24:59.035Z,21.82
2017-05-09T09:26:00.325Z,21.80
2017-05-09T09:27:01.615Z,21.75
2017-05-09T09:28:02.904Z,21.91
2017-05-09T09:29:04.194Z,21.93
2017-05-09T09:30:05.482Z,22.04
2017-05-09T09:31:06.773Z,22.06
2017-05-09T09:32:08.066Z,21.96
2017-05-09T09:33:09.352Z,22.07
2017-05-09T09:34:10.646Z,22.00
2017-05-09T09:35:11.933Z,22.04
2017-05-09T09:36:13.223Z,22.06
2017-05-09T09:37:14.513Z,22.08
2017-05-09T09:38:15.808Z,22.18
2017-05-09T09:39:17.098Z,22.15
2017-05-09T09:40:18.390Z,22.17
2017-05-09T09:41:19.682Z,22.20
2017-05-09T09:42:20.974Z,22.29
2017-05-09T09:43:22.263Z,22.23
2017-05-09T09:44:23.554Z,22.17
2017-05-09T09:45:24.844Z,22.06
2017-05-09T09:46:26.132Z,22.07
2017-05-09T09:47:27.425Z,22.00
2017-05-09T09:48:28.715Z,22.17
2017-05-09T09:49:30.005Z,22.17
2017-05-09T09:50:31.296Z,22.17
2017-05-09T09:51:32.586Z,22.20
2017-05-09T09:52:33.877Z,22.29
2017-05-09T09:53:35.193Z,22.26
2017-05-09T09:54:36.482Z,22.36
2017-05-09T09:55:37.773Z,22.28
2017-05-09T09:56:39.065Z,22.30
2017-05-09T09:57:40.353Z,22.28
2017-05-09T09:58:41.641Z,22.30
2017-05-09T09:59:42.930Z,22.26
2017-05-09T10:00:44.221Z,22.36
2017-05-09T10:01:45.511Z,22.41
2017-05-09T10:02:46.796Z,22.32
2017-05-09T10:03:48.091Z,22.30
2017-05-09T10:04:49.392Z,22.28
2017-05-09T10:05:50.682Z,22.23
2017-05-09T10:06:51.973Z,22.25
2017-05-09T10:07:53.261Z,22.25
2017-05-09T10:08:54.552Z,22.32
2017-05-09T10:09:55.844Z,22.20
2017-05-09T10:10:57.135Z,22.29
2017-05-09T10:11:58.426Z,22.20
2017-05-09T10:12:59.714Z,22.29
2017-05-09T10:14:01.003Z,22.30
2017-05-09T10:15:02.295Z,22.29
2017-05-09T10:16:03.583Z,22.26
2017-05-09T10:17:04.873Z,22.36
2017-05-09T10:18:06.163Z,22.39
2017-05-09T10:19:07.454Z,22.43
2017-05-09T10:20:08.745Z,22.48
2017-05-09T10:21:10.042Z,22.53
2017-05-09T10:22:11.333Z,22.47
2017-05-09T10:23:12.623Z,22.50
2017-05-09T10:24:13.915Z,22.47
2017-05-09T10:25:15.204Z,22.44
2017-05-09T10:26:16.494Z,22.48
2017-05-09T10:27:17.790Z,22.48
2017-05-09T10:28:19.082Z,22.50
2017-05-09T10:29:20.377Z,22.50
2017-05-09T10:30:21.670Z,22.54
2017-05-09T10:31:22.954Z,22.45
2017-05-09T10:32:24.249Z,22.53
2017-05-09T10:33:25.535Z,22.53
2017-05-09T10:34:26.828Z,22.54
2017-05-09T10:35:28.121Z,22.53
2017-05-09T10:36:29.411Z,22.57
2017-05-09T10:37:30.701Z,22.63
2017-05-09T10:38:31.989Z,22.62
2017-05-09T10:39:33.279Z,22.51
2017-05-09T10:40:34.570Z,22.48
2017-05-09T10:41:35.859Z,22.47
2017-05-09T10:42:37.150Z,22.51
2017-05-09T10:43:38.440Z,22.36
2017-05-09T10:44:39.732Z,22.41
2017-05-09T10:45:41.024Z,22.43
2017-05-09T10:46:42.312Z,22.41
2017-05-09T10:47:43.604Z,22.35
2017-05-09T10:48:44.893Z,22.36
2017-05-09T10:49:46.189Z,22.43
2017-05-09T10:50:47.477Z,22.41
2017-05-09T10:51:48.787Z,22.41
2017-05-09T10:52:50.079Z,22.36
2017-05-09T10:53:51.367Z,22.28
2017-05-09T10:54:52.660Z,22.32
2017-05-09T10:55:53.950Z,22.32
2017-05-09T10:56:55.240Z,22.30
2017-05-09T10:57:56.530Z,22.25
2017-05-09T10:58:57.824Z,22.22
2017-05-09T10:59:59.112Z,22.15
2017-05-09T11:01:00.403Z,22.14
2017-05-09T11:02:01.693Z,22.13
2017-05-09T11:03:02.982Z,22.06
2017-05-09T11:04:04.275Z,22.17
2017-05-09T11:05:05.567Z,22.22
2017-05-09T11:06:06.858Z,22.33
2017-05-09T11:07:08.151Z,22.36
2017-05-09T11:08:09.444Z,22.38
2017-05-09T11:09:10.732Z,22.47
2017-05-09T11:10:12.021Z,22.45
2017-05-09T11:11:13.309Z,22.39
2017-05-09T11:12:14.597Z,22.47
2017-05-09T11:13:15.888Z,22.47
2017-05-09T11:14:17.179Z,22.57
2017-05-09T11:15:18.468Z,22.48
2017-05-09T11:16:19.760Z,22.59
2017-05-09T11:17:21.051Z,22.57
2017-05-09T11:18:22.342Z,22.54
2017-05-09T11:19:23.630Z,22.54
2017-05-09T11:20:24.924Z,22.55
2017-05-09T11:21:26.216Z,22.53
2017-05-09T11:22:27.507Z,22.50
2017-05-09T11:23:28.794Z,22.57
2017-05-09T11:24:30.088Z,22.55
2017-05-09T11:25:31.379Z,22.53
2017-05-09T11:26:32.667Z,22.50
2017-05-09T11:27:33.962Z,22.53
2017-05-09T11:28:35.253Z,22.47
2017-05-09T11:29:36.541Z,22.39
2017-05-09T11:30:37.832Z,22.38
2017-05-09T11:31:39.123Z,22.32
2017-05-09T11:32:40.414Z,22.36
2017-05-09T11:33:41.701Z,22.47
2017-05-09T11:34:42.991Z,22.45
2017-05-09T11:35:44.283Z,22.55
2017-05-09T11:36:45.573Z,22.48
2017-05-09T11:37:46.866Z,22.43
2017-05-09T11:38:48.155Z,22.48
2017-05-09T11:39:49.447Z,22.47
2017-05-09T11:40:50.742Z,22.47
2017-05-09T11:41:52.031Z,22.38
2017-05-09T11:42:53.323Z,22.39
2017-05-09T11:43:54.610Z,22.32
2017-05-09T11:44:55.910Z,22.26
2017-05-09T11:45:57.201Z,22.33
2017-05-09T11:46:58.494Z,22.35
2017-05-09T11:47:59.785Z,22.29
2017-05-09T11:49:01.076Z,22.39
2017-05-09T11:50:02.367Z,22.32
2017-05-09T11:51:03.656Z,22.43
2017-05-09T11:52:04.948Z,22.48
2017-05-09T11:53:06.240Z,22.50
2017-05-09T11:54:07.532Z,22.50
2017-05-09T11:55:08.818Z,22.47
2017-05-09T11:56:10.111Z,22.45
2017-05-09T11:57:11.399Z,22.45
2017-05-09T11:58:12.692Z,22.39
2017-05-09T11:59:13.983Z,22.41
2017-05-09T12:00:15.274Z,22.33
2017-05-09T12:01:16.566Z,22.38
2017-05-09T12:02:17.856Z,22.28
2017-05-09T12:03:19.153Z,22.25
2017-05-09T12:04:20.442Z,22.30
2017-05-09T12:05:21.731Z,22.32
2017-05-09T12:06:23.023Z,22.38
2017-05-09T12:07:24.312Z,22.33
2017-05-09T12:08:25.606Z,22.48
2017-05-09T12:09:26.894Z,22.51
2017-05-09T12:10:28.185Z,22.47
2017-05-09T12:11:29.475Z,22.55
2017-05-09T12:12:30.769Z,22.60
2017-05-09T12:13:32.057Z,22.54
2017-05-09T12:14:33.348Z,22.51
2017-05-09T12:15:34.637Z,22.51
2017-05-09T12:16:35.928Z,22.50
2017-05-09T12:17:37.219Z,22.51
2017-05-09T12:18:38.509Z,22.43
2017-05-09T12:19:39.803Z,22.48
2017-05-09T12:20:41.093Z,22.50
2017-05-09T12:21:42.382Z,22.47
2017-05-09T12:22:43.673Z,22.39
2017-05-09T12:23:44.962Z,22.35
2017-05-09T12:24:46.253Z,22.36
2017-05-09T12:25:47.542Z,22.36
2017-05-09T12:26:48.835Z,22.43
2017-05-09T12:27:50.126Z,22.44
2017-05-09T12:28:51.411Z,22.51
2017-05-09T12:29:52.702Z,22.45
2017-05-09T12:30:53.997Z,22.44
2017-05-09T12:31:55.287Z,22.45
2017-05-09T12:32:56.577Z,22.36
2017-05-09T12:33:57.875Z,22.39
2017-05-09T12:34:59.163Z,22.32
2017-05-09T12:36:00.453Z,22.36
2017-05-09T12:37:01.744Z,22.41
2017-05-09T12:38:03.033Z,22.51
2017-05-09T12:39:04.321Z,22.44
2017-05-09T12:40:05.613Z,22.48
2017-05-09T12:41:06.906Z,22.51
2017-05-09T12:42:08.190Z,22.45
2017-05-09T12:43:09.481Z,22.41
2017-05-09T12:44:10.772Z,22.44
2017-05-09T12:45:12.064Z,22.44
2017-05-09T12:46:13.355Z,22.38
2017-05-09T12:47:14.650Z,22.39
2017-05-09T12:48:15.938Z,22.36
2017-05-09T12:49:17.230Z,22.28
2017-05-09T12:50:18.520Z,22.35
2017-05-09T12:51:19.812Z,22.28
2017-05-09T12:52:21.103Z,22.30
2017-05-09T12:53:22.397Z,22.29
2017-05-09T12:54:23.680Z,22.32
2017-05-09T12:55:24.978Z,22.29
2017-05-09T12:56:26.265Z,22.26
2017-05-09T12:57:27.556Z,22.26
2017-05-09T12:58:28.848Z,22.18
2017-05-09T12:59:30.138Z,22.28
2017-05-09T13:00:31.428Z,22.30
2017-05-09T13:01:32.721Z,22.26
2017-05-09T13:02:34.036Z,22.23
2017-05-09T13:03:35.321Z,22.18
2017-05-09T13:04:36.610Z,22.22
2017-05-09T13:05:37.902Z,22.18
2017-05-09T13:06:39.191Z,22.14
2017-05-09T13:07:40.479Z,22.14
2017-05-09T13:08:41.775Z,22.04
2017-05-09T13:09:43.064Z,22.10